sensor_id;sensor_type;location;lat;lon;timestamp;P1;durP1;ratioP1;P2;durP2;ratioP2
48207;SDS011;33997;53.278;9.708;2023-04-03T00:01:23;8.20;;;1.92;;
48207;SDS011;33997;53.278;9.708;2023-04-03T00:03:49;10.15;;;2.42;;
48207;SDS011;33997;53.278;9.708;2023-04-03T00:06:16;7.18;;;1.83;;
48207;SDS011;33997;53.278;9.708;2023-04-03T00:08:42;4.60;;;1.88;;
48207;SDS011;33997;53.278;9.708;2023-04-03T00:11:08;5.55;;;2.20;;
48207;SDS011;33997;53.278;9.708;2023-04-03T00:13:34;9.50;;;2.20;;
48207;SDS011;33997;53.278;9.708;2023-04-03T00:16:00;8.30;;;2.20;;
48207;SDS011;33997;53.278;9.708;2023-04-03T00:18:26;5.55;;;2.20;;
48207;SDS011;33997;53.278;9.708;2023-04-03T00:20:52;7.57;;;1.75;;
48207;SDS011;33997;53.278;9.708;2023-04-03T00:23:17;6.60;;;2.15;;
48207;SDS011;33997;53.278;9.708;2023-04-03T00:25:43;4.90;;;2.10;;
48207;SDS011;33997;53.278;9.708;2023-04-03T00:28:08;5.78;;;2.03;;
48207;SDS011;33997;53.278;9.708;2023-04-03T00:30:34;6.90;;;1.80;;
48207;SDS011;33997;53.278;9.708;2023-04-03T00:33:00;8.43;;;1.98;;
48207;SDS011;33997;53.278;9.708;2023-04-03T00:35:26;6.40;;;1.73;;
48207;SDS011;33997;53.278;9.708;2023-04-03T00:37:52;9.77;;;2.00;;
48207;SDS011;33997;53.278;9.708;2023-04-03T00:40:20;8.40;;;2.10;;
48207;SDS011;33997;53.278;9.708;2023-04-03T00:42:48;5.88;;;1.73;;
48207;SDS011;33997;53.278;9.708;2023-04-03T00:48:03;7.10;;;2.17;;
48207;SDS011;33997;53.278;9.708;2023-04-03T00:50:31;5.55;;;1.65;;
48207;SDS011;33997;53.278;9.708;2023-04-03T00:52:58;10.38;;;1.80;;
48207;SDS011;33997;53.278;9.708;2023-04-03T00:55:25;5.97;;;2.42;;
48207;SDS011;33997;53.278;9.708;2023-04-03T00:57:51;13.25;;;2.47;;
48207;SDS011;33997;53.278;9.708;2023-04-03T01:00:18;9.25;;;2.63;;
48207;SDS011;33997;53.278;9.708;2023-04-03T01:02:45;13.18;;;2.17;;
48207;SDS011;33997;53.278;9.708;2023-04-03T01:05:11;9.60;;;2.15;;
48207;SDS011;33997;53.278;9.708;2023-04-03T01:07:37;5.13;;;1.88;;
48207;SDS011;33997;53.278;9.708;2023-04-03T01:10:05;7.68;;;2.13;;
48207;SDS011;33997;53.278;9.708;2023-04-03T01:12:38;5.28;;;1.80;;
48207;SDS011;33997;53.278;9.708;2023-04-03T01:15:16;9.32;;;1.98;;
48207;SDS011;33997;53.278;9.708;2023-04-03T01:18:17;6.78;;;2.10;;
48207;SDS011;33997;53.278;9.708;2023-04-03T01:20:40;5.80;;;2.03;;
48207;SDS011;33997;53.278;9.708;2023-04-03T01:23:18;7.97;;;2.20;;
48207;SDS011;33997;53.278;9.708;2023-04-03T01:25:52;8.18;;;2.67;;
48207;SDS011;33997;53.278;9.708;2023-04-03T01:28:24;9.38;;;2.10;;
48207;SDS011;33997;53.278;9.708;2023-04-03T01:33:40;12.27;;;2.63;;
48207;SDS011;33997;53.278;9.708;2023-04-03T01:36:06;10.68;;;3.22;;
48207;SDS011;33997;53.278;9.708;2023-04-03T01:38:32;12.32;;;2.90;;
48207;SDS011;33997;53.278;9.708;2023-04-03T01:40:58;11.02;;;3.03;;
48207;SDS011;33997;53.278;9.708;2023-04-03T01:43:23;6.97;;;2.40;;
48207;SDS011;33997;53.278;9.708;2023-04-03T01:45:49;12.18;;;3.20;;
48207;SDS011;33997;53.278;9.708;2023-04-03T01:48:15;15.13;;;3.35;;
48207;SDS011;33997;53.278;9.708;2023-04-03T01:50:41;10.68;;;3.28;;
48207;SDS011;33997;53.278;9.708;2023-04-03T01:53:07;11.30;;;3.38;;
48207;SDS011;33997;53.278;9.708;2023-04-03T01:55:32;10.07;;;2.85;;
48207;SDS011;33997;53.278;9.708;2023-04-03T01:57:58;18.20;;;3.42;;
48207;SDS011;33997;53.278;9.708;2023-04-03T02:00:23;7.97;;;2.55;;
48207;SDS011;33997;53.278;9.708;2023-04-03T02:02:49;7.10;;;2.17;;
48207;SDS011;33997;53.278;9.708;2023-04-03T02:05:15;10.43;;;2.92;;
48207;SDS011;33997;53.278;9.708;2023-04-03T02:07:40;10.30;;;2.63;;
48207;SDS011;33997;53.278;9.708;2023-04-03T02:10:06;5.85;;;2.30;;
48207;SDS011;33997;53.278;9.708;2023-04-03T02:12:32;7.25;;;2.38;;
48207;SDS011;33997;53.278;9.708;2023-04-03T02:14:57;3.90;;;1.92;;
48207;SDS011;33997;53.278;9.708;2023-04-03T02:17:23;13.90;;;2.17;;
48207;SDS011;33997;53.278;9.708;2023-04-03T02:19:48;14.20;;;2.53;;
48207;SDS011;33997;53.278;9.708;2023-04-03T02:22:14;9.50;;;2.58;;
48207;SDS011;33997;53.278;9.708;2023-04-03T02:24:40;10.27;;;2.47;;
48207;SDS011;33997;53.278;9.708;2023-04-03T02:27:06;7.38;;;2.45;;
48207;SDS011;33997;53.278;9.708;2023-04-03T02:29:31;10.32;;;2.72;;
48207;SDS011;33997;53.278;9.708;2023-04-03T02:31:57;8.10;;;2.30;;
48207;SDS011;33997;53.278;9.708;2023-04-03T02:34:22;11.45;;;2.38;;
48207;SDS011;33997;53.278;9.708;2023-04-03T02:36:48;5.65;;;2.45;;
48207;SDS011;33997;53.278;9.708;2023-04-03T02:39:13;16.75;;;3.33;;
48207;SDS011;33997;53.278;9.708;2023-04-03T02:41:39;7.22;;;2.50;;
48207;SDS011;33997;53.278;9.708;2023-04-03T02:44:05;9.88;;;2.25;;
48207;SDS011;33997;53.278;9.708;2023-04-03T02:46:31;12.93;;;2.53;;
48207;SDS011;33997;53.278;9.708;2023-04-03T02:48:57;10.95;;;2.47;;
48207;SDS011;33997;53.278;9.708;2023-04-03T02:51:23;12.50;;;3.13;;
48207;SDS011;33997;53.278;9.708;2023-04-03T02:53:49;11.90;;;2.78;;
48207;SDS011;33997;53.278;9.708;2023-04-03T02:56:15;15.98;;;3.20;;
48207;SDS011;33997;53.278;9.708;2023-04-03T02:58:42;12.02;;;2.40;;
48207;SDS011;33997;53.278;9.708;2023-04-03T03:01:07;14.02;;;3.22;;
48207;SDS011;33997;53.278;9.708;2023-04-03T03:03:33;7.43;;;2.40;;
48207;SDS011;33997;53.278;9.708;2023-04-03T03:06:05;10.30;;;2.60;;
48207;SDS011;33997;53.278;9.708;2023-04-03T03:08:33;7.75;;;2.67;;
48207;SDS011;33997;53.278;9.708;2023-04-03T03:10:59;7.90;;;2.45;;
48207;SDS011;33997;53.278;9.708;2023-04-03T03:13:24;17.98;;;3.40;;
48207;SDS011;33997;53.278;9.708;2023-04-03T03:15:50;6.82;;;2.67;;
48207;SDS011;33997;53.278;9.708;2023-04-03T03:18:15;6.30;;;2.17;;
48207;SDS011;33997;53.278;9.708;2023-04-03T03:20:41;12.90;;;2.28;;
48207;SDS011;33997;53.278;9.708;2023-04-03T03:23:07;9.57;;;2.13;;
48207;SDS011;33997;53.278;9.708;2023-04-03T03:25:32;8.20;;;2.30;;
48207;SDS011;33997;53.278;9.708;2023-04-03T03:27:58;8.45;;;2.97;;
48207;SDS011;33997;53.278;9.708;2023-04-03T03:30:23;9.82;;;2.28;;
48207;SDS011;33997;53.278;9.708;2023-04-03T03:32:48;8.65;;;2.42;;
48207;SDS011;33997;53.278;9.708;2023-04-03T03:35:14;5.38;;;2.05;;
48207;SDS011;33997;53.278;9.708;2023-04-03T03:37:40;10.93;;;2.28;;
48207;SDS011;33997;53.278;9.708;2023-04-03T03:40:05;10.13;;;2.85;;
48207;SDS011;33997;53.278;9.708;2023-04-03T03:42:31;9.45;;;2.65;;
48207;SDS011;33997;53.278;9.708;2023-04-03T03:44:57;11.57;;;2.88;;
48207;SDS011;33997;53.278;9.708;2023-04-03T03:47:22;13.20;;;2.63;;
48207;SDS011;33997;53.278;9.708;2023-04-03T03:49:48;12.30;;;3.30;;
48207;SDS011;33997;53.278;9.708;2023-04-03T03:52:13;11.88;;;3.13;;
48207;SDS011;33997;53.278;9.708;2023-04-03T03:54:39;13.88;;;3.40;;
48207;SDS011;33997;53.278;9.708;2023-04-03T03:57:04;13.15;;;3.63;;
48207;SDS011;33997;53.278;9.708;2023-04-03T03:59:30;10.80;;;2.60;;
48207;SDS011;33997;53.278;9.708;2023-04-03T04:01:56;7.05;;;2.80;;
48207;SDS011;33997;53.278;9.708;2023-04-03T04:04:21;11.40;;;2.95;;
48207;SDS011;33997;53.278;9.708;2023-04-03T04:06:47;10.00;;;2.75;;
48207;SDS011;33997;53.278;9.708;2023-04-03T04:09:12;7.32;;;2.53;;
48207;SDS011;33997;53.278;9.708;2023-04-03T04:11:38;12.43;;;2.75;;
48207;SDS011;33997;53.278;9.708;2023-04-03T04:14:05;10.95;;;2.85;;
48207;SDS011;33997;53.278;9.708;2023-04-03T04:16:31;10.30;;;3.47;;
48207;SDS011;33997;53.278;9.708;2023-04-03T04:18:56;14.23;;;3.28;;
48207;SDS011;33997;53.278;9.708;2023-04-03T04:21:22;11.00;;;3.10;;
48207;SDS011;33997;53.278;9.708;2023-04-03T04:23:47;11.32;;;3.10;;
48207;SDS011;33997;53.278;9.708;2023-04-03T04:26:13;10.95;;;3.33;;
48207;SDS011;33997;53.278;9.708;2023-04-03T04:28:38;14.15;;;3.40;;
48207;SDS011;33997;53.278;9.708;2023-04-03T04:31:04;12.35;;;3.30;;
48207;SDS011;33997;53.278;9.708;2023-04-03T04:33:29;8.55;;;2.50;;
48207;SDS011;33997;53.278;9.708;2023-04-03T04:35:55;9.77;;;2.92;;
48207;SDS011;33997;53.278;9.708;2023-04-03T04:38:20;12.90;;;3.20;;
48207;SDS011;33997;53.278;9.708;2023-04-03T04:40:47;14.85;;;3.28;;
48207;SDS011;33997;53.278;9.708;2023-04-03T04:43:13;10.35;;;3.22;;
48207;SDS011;33997;53.278;9.708;2023-04-03T04:45:39;11.68;;;2.55;;
48207;SDS011;33997;53.278;9.708;2023-04-03T04:48:05;11.20;;;3.28;;
48207;SDS011;33997;53.278;9.708;2023-04-03T04:50:30;7.88;;;2.50;;
48207;SDS011;33997;53.278;9.708;2023-04-03T04:52:56;7.05;;;2.70;;
48207;SDS011;33997;53.278;9.708;2023-04-03T04:55:21;7.57;;;2.92;;
48207;SDS011;33997;53.278;9.708;2023-04-03T04:57:47;10.98;;;3.40;;
48207;SDS011;33997;53.278;9.708;2023-04-03T05:00:13;11.73;;;3.00;;
48207;SDS011;33997;53.278;9.708;2023-04-03T05:02:39;5.35;;;1.90;;
48207;SDS011;33997;53.278;9.708;2023-04-03T05:05:05;9.45;;;2.95;;
48207;SDS011;33997;53.278;9.708;2023-04-03T05:07:30;11.38;;;2.75;;
48207;SDS011;33997;53.278;9.708;2023-04-03T05:09:56;7.95;;;2.38;;
48207;SDS011;33997;53.278;9.708;2023-04-03T05:12:21;8.27;;;2.63;;
48207;SDS011;33997;53.278;9.708;2023-04-03T05:14:47;9.35;;;2.80;;
48207;SDS011;33997;53.278;9.708;2023-04-03T05:17:12;13.50;;;2.30;;
48207;SDS011;33997;53.278;9.708;2023-04-03T05:19:38;13.25;;;2.67;;
48207;SDS011;33997;53.278;9.708;2023-04-03T05:22:03;10.07;;;2.58;;
48207;SDS011;33997;53.278;9.708;2023-04-03T05:24:29;7.78;;;2.42;;
48207;SDS011;33997;53.278;9.708;2023-04-03T05:26:54;10.45;;;2.20;;
48207;SDS011;33997;53.278;9.708;2023-04-03T05:29:20;9.10;;;2.35;;
48207;SDS011;33997;53.278;9.708;2023-04-03T05:31:46;11.98;;;2.35;;
48207;SDS011;33997;53.278;9.708;2023-04-03T05:34:15;8.23;;;2.67;;
48207;SDS011;33997;53.278;9.708;2023-04-03T05:36:40;8.85;;;2.08;;
48207;SDS011;33997;53.278;9.708;2023-04-03T05:39:06;11.88;;;2.47;;
48207;SDS011;33997;53.278;9.708;2023-04-03T05:41:32;17.80;;;2.83;;
48207;SDS011;33997;53.278;9.708;2023-04-03T05:43:58;7.07;;;2.65;;
48207;SDS011;33997;53.278;9.708;2023-04-03T05:46:23;7.93;;;2.33;;
48207;SDS011;33997;53.278;9.708;2023-04-03T05:48:49;9.95;;;2.65;;
48207;SDS011;33997;53.278;9.708;2023-04-03T05:51:16;7.35;;;2.25;;
48207;SDS011;33997;53.278;9.708;2023-04-03T05:53:48;13.88;;;2.83;;
48207;SDS011;33997;53.278;9.708;2023-04-03T05:56:17;14.13;;;2.85;;
48207;SDS011;33997;53.278;9.708;2023-04-03T05:58:42;10.25;;;3.13;;
48207;SDS011;33997;53.278;9.708;2023-04-03T06:01:08;15.10;;;2.88;;
48207;SDS011;33997;53.278;9.708;2023-04-03T06:03:34;13.13;;;3.20;;
48207;SDS011;33997;53.278;9.708;2023-04-03T06:06:01;10.38;;;2.35;;
48207;SDS011;33997;53.278;9.708;2023-04-03T06:08:28;11.95;;;2.45;;
48207;SDS011;33997;53.278;9.708;2023-04-03T06:10:53;12.93;;;3.35;;
48207;SDS011;33997;53.278;9.708;2023-04-03T06:13:19;10.65;;;3.08;;
48207;SDS011;33997;53.278;9.708;2023-04-03T06:15:45;14.48;;;3.10;;
48207;SDS011;33997;53.278;9.708;2023-04-03T06:18:11;8.65;;;3.10;;
48207;SDS011;33997;53.278;9.708;2023-04-03T06:20:37;7.70;;;2.75;;
48207;SDS011;33997;53.278;9.708;2023-04-03T06:23:02;9.82;;;2.88;;
48207;SDS011;33997;53.278;9.708;2023-04-03T06:25:27;11.02;;;3.13;;
48207;SDS011;33997;53.278;9.708;2023-04-03T06:27:53;11.25;;;2.92;;
48207;SDS011;33997;53.278;9.708;2023-04-03T06:30:20;10.23;;;3.05;;
48207;SDS011;33997;53.278;9.708;2023-04-03T06:32:46;10.73;;;2.78;;
48207;SDS011;33997;53.278;9.708;2023-04-03T06:35:11;10.75;;;2.80;;
48207;SDS011;33997;53.278;9.708;2023-04-03T06:37:37;10.63;;;2.70;;
48207;SDS011;33997;53.278;9.708;2023-04-03T06:40:02;10.60;;;2.70;;
48207;SDS011;33997;53.278;9.708;2023-04-03T06:42:29;11.60;;;3.60;;
48207;SDS011;33997;53.278;9.708;2023-04-03T06:44:55;6.53;;;3.05;;
48207;SDS011;33997;53.278;9.708;2023-04-03T06:47:20;5.75;;;2.50;;
48207;SDS011;33997;53.278;9.708;2023-04-03T06:49:45;5.95;;;2.47;;
48207;SDS011;33997;53.278;9.708;2023-04-03T06:52:11;7.32;;;2.90;;
48207;SDS011;33997;53.278;9.708;2023-04-03T06:54:38;7.80;;;2.33;;
48207;SDS011;33997;53.278;9.708;2023-04-03T06:57:04;7.70;;;2.03;;
48207;SDS011;33997;53.278;9.708;2023-04-03T06:59:29;6.70;;;1.83;;
48207;SDS011;33997;53.278;9.708;2023-04-03T07:01:55;5.55;;;1.95;;
48207;SDS011;33997;53.278;9.708;2023-04-03T07:04:20;3.75;;;1.70;;
48207;SDS011;33997;53.278;9.708;2023-04-03T07:06:46;4.63;;;1.77;;
48207;SDS011;33997;53.278;9.708;2023-04-03T07:09:12;4.75;;;1.67;;
48207;SDS011;33997;53.278;9.708;2023-04-03T07:11:38;4.53;;;1.45;;
48207;SDS011;33997;53.278;9.708;2023-04-03T07:14:04;6.95;;;1.48;;
48207;SDS011;33997;53.278;9.708;2023-04-03T07:16:31;5.43;;;1.13;;
48207;SDS011;33997;53.278;9.708;2023-04-03T07:18:57;4.20;;;1.40;;
48207;SDS011;33997;53.278;9.708;2023-04-03T07:21:22;8.10;;;1.38;;
48207;SDS011;33997;53.278;9.708;2023-04-03T07:23:48;4.07;;;1.38;;
48207;SDS011;33997;53.278;9.708;2023-04-03T07:26:13;5.93;;;1.20;;
48207;SDS011;33997;53.278;9.708;2023-04-03T07:28:39;2.80;;;1.10;;
48207;SDS011;33997;53.278;9.708;2023-04-03T07:31:06;3.88;;;0.98;;
48207;SDS011;33997;53.278;9.708;2023-04-03T07:33:36;3.13;;;0.80;;
48207;SDS011;33997;53.278;9.708;2023-04-03T07:36:02;4.43;;;1.13;;
48207;SDS011;33997;53.278;9.708;2023-04-03T07:38:29;2.70;;;1.05;;
48207;SDS011;33997;53.278;9.708;2023-04-03T07:40:55;4.68;;;1.10;;
48207;SDS011;33997;53.278;9.708;2023-04-03T07:43:20;2.88;;;1.13;;
48207;SDS011;33997;53.278;9.708;2023-04-03T07:45:47;5.72;;;1.10;;
48207;SDS011;33997;53.278;9.708;2023-04-03T07:48:17;3.30;;;0.85;;
48207;SDS011;33997;53.278;9.708;2023-04-03T07:50:48;7.43;;;1.33;;
48207;SDS011;33997;53.278;9.708;2023-04-03T07:53:14;6.70;;;1.08;;
48207;SDS011;33997;53.278;9.708;2023-04-03T07:55:40;1.90;;;0.80;;
48207;SDS011;33997;53.278;9.708;2023-04-03T07:58:12;3.00;;;0.60;;
48207;SDS011;33997;53.278;9.708;2023-04-03T08:00:40;1.42;;;0.57;;
48207;SDS011;33997;53.278;9.708;2023-04-03T08:03:06;3.08;;;0.85;;
48207;SDS011;33997;53.278;9.708;2023-04-03T08:05:38;5.13;;;0.98;;
48207;SDS011;33997;53.278;9.708;2023-04-03T08:08:05;2.95;;;0.75;;
48207;SDS011;33997;53.278;9.708;2023-04-03T08:10:31;5.35;;;0.93;;
48207;SDS011;33997;53.278;9.708;2023-04-03T08:12:57;4.32;;;0.95;;
48207;SDS011;33997;53.278;9.708;2023-04-03T08:15:23;7.32;;;1.10;;
48207;SDS011;33997;53.278;9.708;2023-04-03T08:17:49;7.45;;;1.08;;
48207;SDS011;33997;53.278;9.708;2023-04-03T08:20:15;3.17;;;0.80;;
48207;SDS011;33997;53.278;9.708;2023-04-03T08:22:41;2.90;;;0.80;;
48207;SDS011;33997;53.278;9.708;2023-04-03T08:25:06;6.18;;;1.13;;
48207;SDS011;33997;53.278;9.708;2023-04-03T08:27:32;3.42;;;0.95;;
48207;SDS011;33997;53.278;9.708;2023-04-03T08:29:58;3.22;;;0.80;;
48207;SDS011;33997;53.278;9.708;2023-04-03T08:32:24;5.40;;;0.90;;
48207;SDS011;33997;53.278;9.708;2023-04-03T08:34:49;4.20;;;1.05;;
48207;SDS011;33997;53.278;9.708;2023-04-03T08:37:15;3.45;;;1.08;;
48207;SDS011;33997;53.278;9.708;2023-04-03T08:39:44;4.00;;;1.02;;
48207;SDS011;33997;53.278;9.708;2023-04-03T08:42:18;3.78;;;1.10;;
48207;SDS011;33997;53.278;9.708;2023-04-03T08:45:01;4.75;;;0.90;;
48207;SDS011;33997;53.278;9.708;2023-04-03T08:47:42;2.30;;;0.80;;
48207;SDS011;33997;53.278;9.708;2023-04-03T08:50:19;1.48;;;0.60;;
48207;SDS011;33997;53.278;9.708;2023-04-03T08:52:48;4.47;;;1.17;;
48207;SDS011;33997;53.278;9.708;2023-04-03T08:58:06;3.20;;;1.00;;
48207;SDS011;33997;53.278;9.708;2023-04-03T09:03:15;5.53;;;0.93;;
48207;SDS011;33997;53.278;9.708;2023-04-03T09:05:45;4.55;;;0.80;;
48207;SDS011;33997;53.278;9.708;2023-04-03T09:08:31;3.75;;;1.05;;
48207;SDS011;33997;53.278;9.708;2023-04-03T09:11:06;2.78;;;0.90;;
48207;SDS011;33997;53.278;9.708;2023-04-03T09:14:03;1.55;;;0.75;;
48207;SDS011;33997;53.278;9.708;2023-04-03T09:21:42;3.58;;;0.70;;
48207;SDS011;33997;53.278;9.708;2023-04-03T09:24:09;1.42;;;0.60;;
48207;SDS011;33997;53.278;9.708;2023-04-03T09:26:48;2.67;;;0.80;;
48207;SDS011;33997;53.278;9.708;2023-04-03T09:29:21;4.53;;;0.80;;
48207;SDS011;33997;53.278;9.708;2023-04-03T09:32:00;2.58;;;0.88;;
48207;SDS011;33997;53.278;9.708;2023-04-03T09:34:28;4.40;;;0.90;;
48207;SDS011;33997;53.278;9.708;2023-04-03T09:37:00;4.70;;;1.02;;
48207;SDS011;33997;53.278;9.708;2023-04-03T09:39:31;4.55;;;0.90;;
48207;SDS011;33997;53.278;9.708;2023-04-03T09:41:59;3.22;;;0.88;;
48207;SDS011;33997;53.278;9.708;2023-04-03T09:44:36;4.40;;;1.13;;
48207;SDS011;33997;53.278;9.708;2023-04-03T09:47:21;3.75;;;0.80;;
48207;SDS011;33997;53.278;9.708;2023-04-03T09:52:37;3.75;;;0.90;;
48207;SDS011;33997;53.278;9.708;2023-04-03T09:55:23;5.88;;;0.88;;
48207;SDS011;33997;53.278;9.708;2023-04-03T09:58:01;2.57;;;0.73;;
48207;SDS011;33997;53.278;9.708;2023-04-03T10:00:29;2.88;;;0.95;;
48207;SDS011;33997;53.278;9.708;2023-04-03T10:02:59;5.72;;;1.00;;
48207;SDS011;33997;53.278;9.708;2023-04-03T10:05:27;2.63;;;0.77;;
48207;SDS011;33997;53.278;9.708;2023-04-03T10:10:38;2.42;;;0.68;;
48207;SDS011;33997;53.278;9.708;2023-04-03T10:13:11;4.43;;;1.10;;
48207;SDS011;33997;53.278;9.708;2023-04-03T10:15:41;1.58;;;0.60;;
48207;SDS011;33997;53.278;9.708;2023-04-03T10:18:21;2.50;;;0.80;;
48207;SDS011;33997;53.278;9.708;2023-04-03T10:21:24;4.35;;;0.90;;
48207;SDS011;33997;53.278;9.708;2023-04-03T10:30:04;1.30;;;0.73;;
48207;SDS011;33997;53.278;9.708;2023-04-03T10:32:52;3.60;;;1.00;;
48207;SDS011;33997;53.278;9.708;2023-04-03T10:35:48;3.78;;;0.70;;
48207;SDS011;33997;53.278;9.708;2023-04-03T10:38:43;4.28;;;1.08;;
48207;SDS011;33997;53.278;9.708;2023-04-03T10:44:03;3.33;;;0.80;;
48207;SDS011;33997;53.278;9.708;2023-04-03T10:46:41;2.33;;;0.90;;
48207;SDS011;33997;53.278;9.708;2023-04-03T10:49:25;2.58;;;0.70;;
48207;SDS011;33997;53.278;9.708;2023-04-03T10:52:25;3.90;;;1.05;;
48207;SDS011;33997;53.278;9.708;2023-04-03T10:57:58;1.60;;;0.67;;
48207;SDS011;33997;53.278;9.708;2023-04-03T11:00:42;4.03;;;0.88;;
48207;SDS011;33997;53.278;9.708;2023-04-03T11:03:14;2.95;;;0.88;;
48207;SDS011;33997;53.278;9.708;2023-04-03T11:05:54;3.50;;;0.90;;
48207;SDS011;33997;53.278;9.708;2023-04-03T11:08:26;2.78;;;0.88;;
48207;SDS011;33997;53.278;9.708;2023-04-03T11:11:17;2.92;;;0.75;;
48207;SDS011;33997;53.278;9.708;2023-04-03T11:13:50;1.48;;;0.55;;
48207;SDS011;33997;53.278;9.708;2023-04-03T11:16:29;4.03;;;1.13;;
48207;SDS011;33997;53.278;9.708;2023-04-03T11:24:36;2.25;;;0.57;;
48207;SDS011;33997;53.278;9.708;2023-04-03T11:27:08;3.45;;;0.93;;
48207;SDS011;33997;53.278;9.708;2023-04-03T11:29:41;2.45;;;0.70;;
48207;SDS011;33997;53.278;9.708;2023-04-03T11:32:32;2.63;;;0.80;;
48207;SDS011;33997;53.278;9.708;2023-04-03T11:35:16;4.18;;;0.88;;
48207;SDS011;33997;53.278;9.708;2023-04-03T11:37:52;3.58;;;0.80;;
48207;SDS011;33997;53.278;9.708;2023-04-03T11:42:48;2.83;;;0.80;;
48207;SDS011;33997;53.278;9.708;2023-04-03T11:45:23;2.70;;;0.70;;
48207;SDS011;33997;53.278;9.708;2023-04-03T11:47:59;2.42;;;0.70;;
48207;SDS011;33997;53.278;9.708;2023-04-03T11:50:45;2.35;;;0.90;;
48207;SDS011;33997;53.278;9.708;2023-04-03T11:55:44;1.90;;;0.80;;
48207;SDS011;33997;53.278;9.708;2023-04-03T11:58:17;2.63;;;0.73;;
48207;SDS011;33997;53.278;9.708;2023-04-03T12:00:58;2.30;;;0.90;;
48207;SDS011;33997;53.278;9.708;2023-04-03T12:03:29;5.45;;;0.80;;
48207;SDS011;33997;53.278;9.708;2023-04-03T12:13:34;1.88;;;0.70;;
48207;SDS011;33997;53.278;9.708;2023-04-03T12:16:01;2.97;;;1.00;;
48207;SDS011;33997;53.278;9.708;2023-04-03T12:18:42;2.00;;;0.70;;
48207;SDS011;33997;53.278;9.708;2023-04-03T12:32:06;4.22;;;0.95;;
48207;SDS011;33997;53.278;9.708;2023-04-03T12:41:14;4.22;;;0.70;;
48207;SDS011;33997;53.278;9.708;2023-04-03T12:46:28;3.38;;;1.00;;
48207;SDS011;33997;53.278;9.708;2023-04-03T12:49:02;2.42;;;1.00;;
48207;SDS011;33997;53.278;9.708;2023-04-03T12:51:47;2.25;;;1.10;;
48207;SDS011;33997;53.278;9.708;2023-04-03T12:54:13;3.47;;;1.00;;
48207;SDS011;33997;53.278;9.708;2023-04-03T12:56:44;1.83;;;0.70;;
48207;SDS011;33997;53.278;9.708;2023-04-03T12:59:14;5.18;;;1.00;;
48207;SDS011;33997;53.278;9.708;2023-04-03T13:02:01;4.78;;;1.00;;
48207;SDS011;33997;53.278;9.708;2023-04-03T13:04:27;1.65;;;0.57;;
48207;SDS011;33997;53.278;9.708;2023-04-03T13:06:54;4.07;;;1.02;;
48207;SDS011;33997;53.278;9.708;2023-04-03T13:12:12;3.35;;;0.80;;
48207;SDS011;33997;53.278;9.708;2023-04-03T13:14:39;1.63;;;0.63;;
48207;SDS011;33997;53.278;9.708;2023-04-03T13:19:39;3.13;;;0.90;;
48207;SDS011;33997;53.278;9.708;2023-04-03T13:22:08;6.63;;;0.80;;
48207;SDS011;33997;53.278;9.708;2023-04-03T13:24:46;3.70;;;0.95;;
48207;SDS011;33997;53.278;9.708;2023-04-03T13:27:14;3.53;;;0.93;;
48207;SDS011;33997;53.278;9.708;2023-04-03T13:29:40;3.53;;;0.98;;
48207;SDS011;33997;53.278;9.708;2023-04-03T13:32:06;3.10;;;1.00;;
48207;SDS011;33997;53.278;9.708;2023-04-03T13:34:36;5.25;;;1.08;;
48207;SDS011;33997;53.278;9.708;2023-04-03T13:37:05;3.95;;;0.80;;
48207;SDS011;33997;53.278;9.708;2023-04-03T13:39:34;1.95;;;0.70;;
48207;SDS011;33997;53.278;9.708;2023-04-03T13:42:22;3.00;;;1.00;;
48207;SDS011;33997;53.278;9.708;2023-04-03T13:45:08;4.25;;;1.40;;
48207;SDS011;33997;53.278;9.708;2023-04-03T13:47:49;1.60;;;0.70;;
48207;SDS011;33997;53.278;9.708;2023-04-03T13:50:26;2.47;;;0.98;;
48207;SDS011;33997;53.278;9.708;2023-04-03T13:53:08;3.97;;;0.98;;
48207;SDS011;33997;53.278;9.708;2023-04-03T13:55:51;2.72;;;0.95;;
48207;SDS011;33997;53.278;9.708;2023-04-03T13:58:32;3.45;;;0.90;;
48207;SDS011;33997;53.278;9.708;2023-04-03T14:01:10;5.97;;;1.00;;
48207;SDS011;33997;53.278;9.708;2023-04-03T14:03:52;2.88;;;0.98;;
48207;SDS011;33997;53.278;9.708;2023-04-03T14:06:25;1.80;;;0.85;;
48207;SDS011;33997;53.278;9.708;2023-04-03T14:08:52;3.60;;;1.00;;
48207;SDS011;33997;53.278;9.708;2023-04-03T14:11:22;4.65;;;1.15;;
48207;SDS011;33997;53.278;9.708;2023-04-03T14:13:52;3.75;;;0.80;;
48207;SDS011;33997;53.278;9.708;2023-04-03T14:16:19;2.05;;;0.88;;
48207;SDS011;33997;53.278;9.708;2023-04-03T14:18:48;1.85;;;0.73;;
48207;SDS011;33997;53.278;9.708;2023-04-03T14:21:15;3.05;;;0.98;;
48207;SDS011;33997;53.278;9.708;2023-04-03T14:23:42;3.83;;;0.88;;
48207;SDS011;33997;53.278;9.708;2023-04-03T14:26:09;2.88;;;1.00;;
48207;SDS011;33997;53.278;9.708;2023-04-03T14:28:37;2.80;;;0.82;;
48207;SDS011;33997;53.278;9.708;2023-04-03T14:31:05;4.45;;;0.90;;
48207;SDS011;33997;53.278;9.708;2023-04-03T14:33:30;2.85;;;1.00;;
48207;SDS011;33997;53.278;9.708;2023-04-03T14:35:59;1.90;;;0.80;;
48207;SDS011;33997;53.278;9.708;2023-04-03T14:38:28;2.47;;;0.88;;
48207;SDS011;33997;53.278;9.708;2023-04-03T14:40:55;3.05;;;1.02;;
48207;SDS011;33997;53.278;9.708;2023-04-03T14:43:21;2.83;;;1.02;;
48207;SDS011;33997;53.278;9.708;2023-04-03T14:45:48;2.15;;;0.98;;
48207;SDS011;33997;53.278;9.708;2023-04-03T14:48:16;2.95;;;0.90;;
48207;SDS011;33997;53.278;9.708;2023-04-03T14:50:47;4.30;;;1.00;;
48207;SDS011;33997;53.278;9.708;2023-04-03T14:53:13;4.85;;;1.27;;
48207;SDS011;33997;53.278;9.708;2023-04-03T14:55:40;2.83;;;1.10;;
48207;SDS011;33997;53.278;9.708;2023-04-03T14:58:11;5.05;;;1.35;;
48207;SDS011;33997;53.278;9.708;2023-04-03T15:00:41;2.42;;;0.98;;
48207;SDS011;33997;53.278;9.708;2023-04-03T15:03:12;1.70;;;0.70;;
48207;SDS011;33997;53.278;9.708;2023-04-03T15:05:39;2.65;;;0.77;;
48207;SDS011;33997;53.278;9.708;2023-04-03T15:08:08;2.65;;;0.93;;
48207;SDS011;33997;53.278;9.708;2023-04-03T15:10:49;3.80;;;0.85;;
48207;SDS011;33997;53.278;9.708;2023-04-03T15:13:18;4.15;;;0.80;;
48207;SDS011;33997;53.278;9.708;2023-04-03T15:15:43;3.10;;;0.80;;
48207;SDS011;33997;53.278;9.708;2023-04-03T15:18:17;1.92;;;0.90;;
48207;SDS011;33997;53.278;9.708;2023-04-03T15:20:45;3.30;;;0.90;;
48207;SDS011;33997;53.278;9.708;2023-04-03T15:23:11;2.78;;;0.73;;
48207;SDS011;33997;53.278;9.708;2023-04-03T15:25:41;4.68;;;0.77;;
48207;SDS011;33997;53.278;9.708;2023-04-03T15:28:08;3.20;;;0.80;;
48207;SDS011;33997;53.278;9.708;2023-04-03T15:30:41;2.15;;;0.60;;
48207;SDS011;33997;53.278;9.708;2023-04-03T15:33:07;3.97;;;0.80;;
48207;SDS011;33997;53.278;9.708;2023-04-03T15:35:33;3.33;;;1.00;;
48207;SDS011;33997;53.278;9.708;2023-04-03T15:37:58;3.65;;;0.93;;
48207;SDS011;33997;53.278;9.708;2023-04-03T15:40:25;2.42;;;0.80;;
48207;SDS011;33997;53.278;9.708;2023-04-03T15:42:50;3.47;;;0.90;;
48207;SDS011;33997;53.278;9.708;2023-04-03T15:45:16;2.53;;;0.82;;
48207;SDS011;33997;53.278;9.708;2023-04-03T15:47:41;2.67;;;0.80;;
48207;SDS011;33997;53.278;9.708;2023-04-03T15:50:07;2.40;;;0.70;;
48207;SDS011;33997;53.278;9.708;2023-04-03T15:52:33;2.20;;;0.70;;
48207;SDS011;33997;53.278;9.708;2023-04-03T15:54:59;2.58;;;0.80;;
48207;SDS011;33997;53.278;9.708;2023-04-03T15:57:24;2.80;;;0.95;;
48207;SDS011;33997;53.278;9.708;2023-04-03T15:59:51;2.72;;;0.73;;
48207;SDS011;33997;53.278;9.708;2023-04-03T16:02:17;1.00;;;0.70;;
48207;SDS011;33997;53.278;9.708;2023-04-03T16:04:42;2.45;;;0.80;;
48207;SDS011;33997;53.278;9.708;2023-04-03T16:07:08;1.88;;;0.90;;
48207;SDS011;33997;53.278;9.708;2023-04-03T16:09:34;1.85;;;0.90;;
48207;SDS011;33997;53.278;9.708;2023-04-03T16:12:00;2.85;;;0.70;;
48207;SDS011;33997;53.278;9.708;2023-04-03T16:14:26;2.45;;;0.80;;